X  Cerrar Datos meteorológicos de aviación METAR     LEGR F.G.L. Airport Granada-Jaén Airport
Temperatura
28°C Temperatura
10°C Punto de rocío
32% Humedad



Viento
14 MPH
23 KM/H
6 M/S
12 NUDO



140°
SE
Condiciones actuales

Claro Claro
Presión 1013.88 (hPa) - 29.94 (inHg)
Visibilidad 6 (milla) - 9.7 (km)
Aeropuerto
Código de aeropuerto LEGR

localidad: F.G.L. Airport Granada-Jaén Airport
Distancia: 138 (mi)

Metar:
LEGR 240830Z 14012KT CAVOK 28/10 Q1014

Hora: 24-06-2024 10:30 CEST